New London, NH

6:54 AM EDT on July 05, 2015 (GMT -0400)
Parkside | | Change Station
CLOSE
Current Station
Personal Weather Station
Location: New London, NH
Elevation: 1263 ft
Nearby Weather Stations

Elev 1263 ft 43.42 °N, 72.00 °W | Updated 3 minutes ago

Fog
Fog
59.7 °F
Feels Like 59.7 °F
N
0.0
Wind Variable Wind from South

Today
High -- | Low -- °F
--% Chance of Precip.
Yesterday
High -- | Low -- °F
Precip. -- in
5:13 AM 8:31 PM
Waning Gibbous, 86% visible
Pressure 30.04 in
Visibility 0.5 miles
Clouds
Dew Point 59 °F
Humidity 96%
Rainfall 0.00 in
Snow Depth Not available.
UV Not available.
Pollen 2.40 out of 12
Air Quality Not available.
Flu Activity Not available.
SPECI KLEB 051020Z 16003KT 1/2SM FG VV001 14/13 A3004 RMK AO2 T01390133

More Conditions Fewer Conditions

Pressure 30.04 in
Visibility 0.5 miles
Clouds
Dew Point 59 °F
Humidity 96%
Rainfall 0.00 in
Snow Depth Not available.
UV Not available.
Pollen 2.40 out of 12
Air Quality Not available.
Flu Activity Not available.
SPECI KLEB 051020Z 16003KT 1/2SM FG VV001 14/13 A3004 RMK AO2 T01390133

More Conditions Fewer Conditions

10-Day Weather Forecast

×

Almanac

Astronomy

Jul. 05, 2015 Rise Set
Actual Time
Civil Twilight
Nautical Twilight
Astronomical Twilight
Moon
Length of Visible Light
Length of Day
Tomorrow will be .
, % of the Moon is Illuminated

Today's Extremes

State Highs State Lows

Community

WunderPhotos

Upload Photos

1,835,229 photos uploaded!

WunderBlogs® & News

Nearby

Air Quality

  Air Quality AQ Index Pollutant
Not available.

Snow Depth

Station Depth Elevation

Earthquake Activity

City Distance Mag. Time & Date
Minimum magnitude displayed is 2.5.

Coastal Water Temperatures

Place Temperature

Stations

Nearby Weather Stations

Station Location Temp. Windchill Dew Point Humidity Wind Precip. Elev Updated Type